sensor_id;sensor_type;location;lat;lon;timestamp;temperature;humidity
72756;SHT30;60881;55.002;73.232;2022-07-23T00:01:51;17.20;56.55
72756;SHT30;60881;55.002;73.232;2022-07-23T00:04:18;17.15;56.92
72756;SHT30;60881;55.002;73.232;2022-07-23T00:06:44;17.14;56.91
72756;SHT30;60881;55.002;73.232;2022-07-23T00:09:11;17.12;56.73
72756;SHT30;60881;55.002;73.232;2022-07-23T00:11:37;17.17;58.59
72756;SHT30;60881;55.002;73.232;2022-07-23T00:14:15;17.18;56.76
72756;SHT30;60881;55.002;73.232;2022-07-23T00:16:41;17.17;57.34
72756;SHT30;60881;55.002;73.232;2022-07-23T00:19:08;17.21;58.34
72756;SHT30;60881;55.002;73.232;2022-07-23T00:21:35;17.24;57.25
72756;SHT30;60881;55.002;73.232;2022-07-23T00:24:01;17.25;57.88
72756;SHT30;60881;55.002;73.232;2022-07-23T00:26:27;17.27;57.64
72756;SHT30;60881;55.002;73.232;2022-07-23T00:28:54;17.25;58.82
72756;SHT30;60881;55.002;73.232;2022-07-23T00:31:21;17.27;58.31
72756;SHT30;60881;55.002;73.232;2022-07-23T00:33:48;17.27;58.64
72756;SHT30;60881;55.002;73.232;2022-07-23T00:36:21;17.22;58.56
72756;SHT30;60881;55.002;73.232;2022-07-23T00:38:47;17.24;58.87
72756;SHT30;60881;55.002;73.232;2022-07-23T00:41:14;17.17;60.67
72756;SHT30;60881;55.002;73.232;2022-07-23T00:43:41;17.14;62.01
72756;SHT30;60881;55.002;73.232;2022-07-23T00:46:07;17.04;62.37
72756;SHT30;60881;55.002;73.232;2022-07-23T00:48:34;16.91;64.91
72756;SHT30;60881;55.002;73.232;2022-07-23T00:51:00;16.78;65.05
72756;SHT30;60881;55.002;73.232;2022-07-23T00:53:27;16.70;67.94
72756;SHT30;60881;55.002;73.232;2022-07-23T00:55:54;16.66;69.93
72756;SHT30;60881;55.002;73.232;2022-07-23T00:58:20;16.66;69.35
72756;SHT30;60881;55.002;73.232;2022-07-23T01:00:48;16.71;69.34
72756;SHT30;60881;55.002;73.232;2022-07-23T01:03:15;16.71;68.79
72756;SHT30;60881;55.002;73.232;2022-07-23T01:05:42;16.67;69.33
72756;SHT30;60881;55.002;73.232;2022-07-23T01:08:09;16.68;68.64
72756;SHT30;60881;55.002;73.232;2022-07-23T01:10:35;16.71;67.90
72756;SHT30;60881;55.002;73.232;2022-07-23T01:13:05;16.83;69.47
72756;SHT30;60881;55.002;73.232;2022-07-23T01:15:33;17.00;69.12
72756;SHT30;60881;55.002;73.232;2022-07-23T01:18:04;17.18;70.15
72756;SHT30;60881;55.002;73.232;2022-07-23T01:20:33;17.55;68.74
72756;SHT30;60881;55.002;73.232;2022-07-23T01:23:03;17.69;65.53
72756;SHT30;60881;55.002;73.232;2022-07-23T01:25:30;17.82;63.95
72756;SHT30;60881;55.002;73.232;2022-07-23T01:27:59;17.90;62.71
72756;SHT30;60881;55.002;73.232;2022-07-23T01:30:27;17.95;63.27
72756;SHT30;60881;55.002;73.232;2022-07-23T01:32:56;17.98;64.16
72756;SHT30;60881;55.002;73.232;2022-07-23T01:35:25;18.05;65.10
72756;SHT30;60881;55.002;73.232;2022-07-23T01:37:55;18.10;65.66
72756;SHT30;60881;55.002;73.232;2022-07-23T01:40:23;18.16;62.73
72756;SHT30;60881;55.002;73.232;2022-07-23T01:42:50;18.17;61.68
72756;SHT30;60881;55.002;73.232;2022-07-23T01:45:18;18.16;63.87
72756;SHT30;60881;55.002;73.232;2022-07-23T01:47:53;18.09;62.57
72756;SHT30;60881;55.002;73.232;2022-07-23T01:50:20;18.12;62.20
72756;SHT30;60881;55.002;73.232;2022-07-23T01:53:13;18.13;60.88
72756;SHT30;60881;55.002;73.232;2022-07-23T01:55:46;18.13;60.06
72756;SHT30;60881;55.002;73.232;2022-07-23T01:58:13;18.14;59.01
72756;SHT30;60881;55.002;73.232;2022-07-23T02:00:41;18.13;59.63
72756;SHT30;60881;55.002;73.232;2022-07-23T02:03:08;18.13;60.29
72756;SHT30;60881;55.002;73.232;2022-07-23T02:05:34;18.05;61.54
72756;SHT30;60881;55.002;73.232;2022-07-23T02:08:08;18.03;61.04
72756;SHT30;60881;55.002;73.232;2022-07-23T02:10:36;18.05;61.31
72756;SHT30;60881;55.002;73.232;2022-07-23T02:13:03;18.10;61.86
72756;SHT30;60881;55.002;73.232;2022-07-23T02:15:31;18.12;62.96
72756;SHT30;60881;55.002;73.232;2022-07-23T02:17:59;18.21;61.65
72756;SHT30;60881;55.002;73.232;2022-07-23T02:20:26;18.25;63.78
72756;SHT30;60881;55.002;73.232;2022-07-23T02:22:53;18.34;63.52
72756;SHT30;60881;55.002;73.232;2022-07-23T02:25:21;18.40;61.74
72756;SHT30;60881;55.002;73.232;2022-07-23T02:27:47;18.39;62.65
72756;SHT30;60881;55.002;73.232;2022-07-23T02:30:14;18.45;61.75
72756;SHT30;60881;55.002;73.232;2022-07-23T02:32:43;18.52;61.68
72756;SHT30;60881;55.002;73.232;2022-07-23T02:35:10;18.59;60.97
72756;SHT30;60881;55.002;73.232;2022-07-23T02:37:38;18.71;59.47
72756;SHT30;60881;55.002;73.232;2022-07-23T02:40:05;18.91;59.42
72756;SHT30;60881;55.002;73.232;2022-07-23T02:42:35;19.07;59.17
72756;SHT30;60881;55.002;73.232;2022-07-23T02:45:01;19.14;58.72
72756;SHT30;60881;55.002;73.232;2022-07-23T02:47:28;19.21;57.69
72756;SHT30;60881;55.002;73.232;2022-07-23T02:49:56;19.32;57.41
72756;SHT30;60881;55.002;73.232;2022-07-23T02:52:23;19.48;58.28
72756;SHT30;60881;55.002;73.232;2022-07-23T02:54:52;19.53;58.27
72756;SHT30;60881;55.002;73.232;2022-07-23T02:57:19;19.61;57.13
72756;SHT30;60881;55.002;73.232;2022-07-23T02:59:46;19.71;56.33
72756;SHT30;60881;55.002;73.232;2022-07-23T03:02:13;19.79;56.43
72756;SHT30;60881;55.002;73.232;2022-07-23T03:04:39;19.89;57.03
72756;SHT30;60881;55.002;73.232;2022-07-23T03:07:08;20.05;57.21
72756;SHT30;60881;55.002;73.232;2022-07-23T03:09:35;20.15;57.31
72756;SHT30;60881;55.002;73.232;2022-07-23T03:12:01;20.16;56.77
72756;SHT30;60881;55.002;73.232;2022-07-23T03:14:29;20.23;56.10
72756;SHT30;60881;55.002;73.232;2022-07-23T03:16:57;20.26;56.10
72756;SHT30;60881;55.002;73.232;2022-07-23T03:19:26;20.32;57.32
72756;SHT30;60881;55.002;73.232;2022-07-23T03:21:52;20.42;58.95
72756;SHT30;60881;55.002;73.232;2022-07-23T03:24:19;20.52;55.50
72756;SHT30;60881;55.002;73.232;2022-07-23T03:26:45;20.55;56.05
72756;SHT30;60881;55.002;73.232;2022-07-23T03:29:12;20.63;55.74
72756;SHT30;60881;55.002;73.232;2022-07-23T03:31:38;20.75;55.13
72756;SHT30;60881;55.002;73.232;2022-07-23T03:34:06;20.84;56.06
72756;SHT30;60881;55.002;73.232;2022-07-23T03:36:33;20.87;54.75
72756;SHT30;60881;55.002;73.232;2022-07-23T03:39:01;20.97;55.32
72756;SHT30;60881;55.002;73.232;2022-07-23T03:41:28;21.03;55.85
72756;SHT30;60881;55.002;73.232;2022-07-23T03:51:51;21.24;54.96
72756;SHT30;60881;55.002;73.232;2022-07-23T03:54:28;21.20;55.68
72756;SHT30;60881;55.002;73.232;2022-07-23T03:56:55;21.23;55.99
72756;SHT30;60881;55.002;73.232;2022-07-23T03:59:27;21.23;55.54
72756;SHT30;60881;55.002;73.232;2022-07-23T04:02:00;21.26;55.59
72756;SHT30;60881;55.002;73.232;2022-07-23T04:04:26;21.26;55.47
72756;SHT30;60881;55.002;73.232;2022-07-23T04:06:54;21.30;55.66
72756;SHT30;60881;55.002;73.232;2022-07-23T04:09:26;21.30;55.85
72756;SHT30;60881;55.002;73.232;2022-07-23T04:12:03;21.33;55.31
72756;SHT30;60881;55.002;73.232;2022-07-23T04:14:36;21.44;53.99
72756;SHT30;60881;55.002;73.232;2022-07-23T04:17:12;21.53;54.45
72756;SHT30;60881;55.002;73.232;2022-07-23T04:19:40;21.68;54.52
72756;SHT30;60881;55.002;73.232;2022-07-23T04:22:15;21.77;53.93
72756;SHT30;60881;55.002;73.232;2022-07-23T04:24:41;21.88;53.49
72756;SHT30;60881;55.002;73.232;2022-07-23T04:27:10;21.90;54.67
72756;SHT30;60881;55.002;73.232;2022-07-23T04:29:37;21.98;53.38
72756;SHT30;60881;55.002;73.232;2022-07-23T04:32:04;22.04;54.25
72756;SHT30;60881;55.002;73.232;2022-07-23T04:34:30;21.97;52.37
72756;SHT30;60881;55.002;73.232;2022-07-23T04:36:58;21.91;52.73
72756;SHT30;60881;55.002;73.232;2022-07-23T04:39:26;21.82;53.47
72756;SHT30;60881;55.002;73.232;2022-07-23T04:42:01;21.94;53.50
72756;SHT30;60881;55.002;73.232;2022-07-23T04:44:29;21.90;53.90
72756;SHT30;60881;55.002;73.232;2022-07-23T04:47:02;21.97;53.51
72756;SHT30;60881;55.002;73.232;2022-07-23T04:49:29;21.92;53.26
72756;SHT30;60881;55.002;73.232;2022-07-23T04:51:56;21.82;53.20
72756;SHT30;60881;55.002;73.232;2022-07-23T04:54:32;21.82;54.29
72756;SHT30;60881;55.002;73.232;2022-07-23T04:57:00;21.84;54.41
72756;SHT30;60881;55.002;73.232;2022-07-23T04:59:27;21.87;54.26
72756;SHT30;60881;55.002;73.232;2022-07-23T05:01:58;21.90;54.34
72756;SHT30;60881;55.002;73.232;2022-07-23T05:04:26;21.84;54.14
72756;SHT30;60881;55.002;73.232;2022-07-23T05:06:53;21.80;54.26
72756;SHT30;60881;55.002;73.232;2022-07-23T05:09:19;21.91;54.71
72756;SHT30;60881;55.002;73.232;2022-07-23T05:11:51;21.97;54.34
72756;SHT30;60881;55.002;73.232;2022-07-23T05:14:23;21.98;53.33
72756;SHT30;60881;55.002;73.232;2022-07-23T05:17:01;21.85;52.26
72756;SHT30;60881;55.002;73.232;2022-07-23T05:19:37;21.81;52.87
72756;SHT30;60881;55.002;73.232;2022-07-23T05:22:16;21.90;53.83
72756;SHT30;60881;55.002;73.232;2022-07-23T05:24:42;22.00;54.01
72756;SHT30;60881;55.002;73.232;2022-07-23T05:27:11;22.06;54.88
72756;SHT30;60881;55.002;73.232;2022-07-23T05:29:37;22.15;54.92
72756;SHT30;60881;55.002;73.232;2022-07-23T05:32:04;22.21;54.20
72756;SHT30;60881;55.002;73.232;2022-07-23T05:34:40;22.25;53.16
72756;SHT30;60881;55.002;73.232;2022-07-23T05:37:07;22.35;53.71
72756;SHT30;60881;55.002;73.232;2022-07-23T05:39:34;22.29;53.05
72756;SHT30;60881;55.002;73.232;2022-07-23T05:42:00;22.28;53.32
72756;SHT30;60881;55.002;73.232;2022-07-23T05:44:37;22.29;53.93
72756;SHT30;60881;55.002;73.232;2022-07-23T05:47:04;22.36;54.64
72756;SHT30;60881;55.002;73.232;2022-07-23T05:49:31;22.46;53.01
72756;SHT30;60881;55.002;73.232;2022-07-23T05:52:21;22.55;52.50
72756;SHT30;60881;55.002;73.232;2022-07-23T05:55:15;22.59;51.79
72756;SHT30;60881;55.002;73.232;2022-07-23T05:57:42;22.68;52.05
72756;SHT30;60881;55.002;73.232;2022-07-23T06:00:10;22.76;51.24
72756;SHT30;60881;55.002;73.232;2022-07-23T06:02:40;22.79;50.71
72756;SHT30;60881;55.002;73.232;2022-07-23T06:05:09;22.92;50.38
72756;SHT30;60881;55.002;73.232;2022-07-23T06:07:44;23.04;50.46
72756;SHT30;60881;55.002;73.232;2022-07-23T06:10:12;23.03;49.42
72756;SHT30;60881;55.002;73.232;2022-07-23T06:12:42;23.10;50.91
72756;SHT30;60881;55.002;73.232;2022-07-23T06:15:10;23.22;50.95
72756;SHT30;60881;55.002;73.232;2022-07-23T06:17:38;23.24;50.50
72756;SHT30;60881;55.002;73.232;2022-07-23T06:20:08;23.28;49.42
72756;SHT30;60881;55.002;73.232;2022-07-23T06:22:38;23.20;49.22
72756;SHT30;60881;55.002;73.232;2022-07-23T06:25:14;23.43;49.20
72756;SHT30;60881;55.002;73.232;2022-07-23T06:27:43;23.54;49.24
72756;SHT30;60881;55.002;73.232;2022-07-23T06:30:12;23.61;48.68
72756;SHT30;60881;55.002;73.232;2022-07-23T06:32:39;23.64;48.23
72756;SHT30;60881;55.002;73.232;2022-07-23T06:35:06;23.74;49.25
72756;SHT30;60881;55.002;73.232;2022-07-23T06:37:38;23.75;47.55
72756;SHT30;60881;55.002;73.232;2022-07-23T06:40:05;23.56;47.65
72756;SHT30;60881;55.002;73.232;2022-07-23T06:42:36;23.45;49.38
72756;SHT30;60881;55.002;73.232;2022-07-23T06:45:06;23.43;47.06
72756;SHT30;60881;55.002;73.232;2022-07-23T06:47:35;23.40;47.60
72756;SHT30;60881;55.002;73.232;2022-07-23T06:50:02;23.30;47.26
72756;SHT30;60881;55.002;73.232;2022-07-23T06:52:29;23.24;46.76
72756;SHT30;60881;55.002;73.232;2022-07-23T06:54:56;23.22;44.54
72756;SHT30;60881;55.002;73.232;2022-07-23T06:57:22;23.23;45.12
72756;SHT30;60881;55.002;73.232;2022-07-23T06:59:52;23.28;44.96
72756;SHT30;60881;55.002;73.232;2022-07-23T07:02:18;23.27;45.17
72756;SHT30;60881;55.002;73.232;2022-07-23T07:04:52;23.28;47.10
72756;SHT30;60881;55.002;73.232;2022-07-23T07:07:19;23.33;47.70
72756;SHT30;60881;55.002;73.232;2022-07-23T07:09:56;23.43;46.89
72756;SHT30;60881;55.002;73.232;2022-07-23T07:12:22;23.49;47.58
72756;SHT30;60881;55.002;73.232;2022-07-23T07:14:49;23.54;47.58
72756;SHT30;60881;55.002;73.232;2022-07-23T07:17:15;23.59;45.72
72756;SHT30;60881;55.002;73.232;2022-07-23T07:19:42;23.64;46.65
72756;SHT30;60881;55.002;73.232;2022-07-23T07:22:10;23.67;46.87
72756;SHT30;60881;55.002;73.232;2022-07-23T07:24:36;23.78;46.31
72756;SHT30;60881;55.002;73.232;2022-07-23T07:27:03;23.71;46.25
72756;SHT30;60881;55.002;73.232;2022-07-23T07:29:29;23.71;46.84
72756;SHT30;60881;55.002;73.232;2022-07-23T07:31:55;23.78;46.49
72756;SHT30;60881;55.002;73.232;2022-07-23T07:34:22;23.96;46.73
72756;SHT30;60881;55.002;73.232;2022-07-23T07:36:49;24.05;44.29
72756;SHT30;60881;55.002;73.232;2022-07-23T07:39:16;24.20;44.66
72756;SHT30;60881;55.002;73.232;2022-07-23T07:41:42;24.29;44.20
72756;SHT30;60881;55.002;73.232;2022-07-23T07:44:10;24.41;43.87
72756;SHT30;60881;55.002;73.232;2022-07-23T07:46:36;24.48;42.96
72756;SHT30;60881;55.002;73.232;2022-07-23T07:49:03;24.48;44.35
72756;SHT30;60881;55.002;73.232;2022-07-23T07:51:29;24.34;43.60
72756;SHT30;60881;55.002;73.232;2022-07-23T07:53:56;24.15;44.19
72756;SHT30;60881;55.002;73.232;2022-07-23T07:56:28;23.98;46.17
72756;SHT30;60881;55.002;73.232;2022-07-23T08:07:31;23.45;49.27
72756;SHT30;60881;55.002;73.232;2022-07-23T08:10:09;23.47;49.28
72756;SHT30;60881;55.002;73.232;2022-07-23T08:12:47;23.53;48.21
72756;SHT30;60881;55.002;73.232;2022-07-23T08:15:27;23.54;47.30
72756;SHT30;60881;55.002;73.232;2022-07-23T08:18:06;23.61;46.44
72756;SHT30;60881;55.002;73.232;2022-07-23T08:20:42;23.64;45.46
72756;SHT30;60881;55.002;73.232;2022-07-23T08:23:15;23.75;45.56
72756;SHT30;60881;55.002;73.232;2022-07-23T08:25:46;23.94;45.45
72756;SHT30;60881;55.002;73.232;2022-07-23T08:28:14;24.01;45.40
72756;SHT30;60881;55.002;73.232;2022-07-23T08:30:42;24.05;46.04
72756;SHT30;60881;55.002;73.232;2022-07-23T08:33:16;24.17;46.07
72756;SHT30;60881;55.002;73.232;2022-07-23T08:44:23;24.18;47.22
72756;SHT30;60881;55.002;73.232;2022-07-23T08:46:50;24.08;46.49
72756;SHT30;60881;55.002;73.232;2022-07-23T08:49:17;24.01;45.66
72756;SHT30;60881;55.002;73.232;2022-07-23T08:51:43;24.00;45.61
72756;SHT30;60881;55.002;73.232;2022-07-23T08:54:10;24.01;46.18
72756;SHT30;60881;55.002;73.232;2022-07-23T08:56:48;23.96;45.35
72756;SHT30;60881;55.002;73.232;2022-07-23T08:59:14;23.97;46.04
72756;SHT30;60881;55.002;73.232;2022-07-23T09:01:51;24.03;46.56
72756;SHT30;60881;55.002;73.232;2022-07-23T09:04:24;24.11;44.83
72756;SHT30;60881;55.002;73.232;2022-07-23T09:06:54;24.17;45.31
72756;SHT30;60881;55.002;73.232;2022-07-23T09:09:31;24.25;44.71
72756;SHT30;60881;55.002;73.232;2022-07-23T09:12:06;24.32;43.85
72756;SHT30;60881;55.002;73.232;2022-07-23T09:14:41;24.39;44.80
72756;SHT30;60881;55.002;73.232;2022-07-23T09:17:15;24.39;43.14
72756;SHT30;60881;55.002;73.232;2022-07-23T09:19:45;24.37;43.09
72756;SHT30;60881;55.002;73.232;2022-07-23T09:22:25;24.29;44.32
72756;SHT30;60881;55.002;73.232;2022-07-23T09:25:08;23.80;48.80
72756;SHT30;60881;55.002;73.232;2022-07-23T09:27:56;22.89;54.31
72756;SHT30;60881;55.002;73.232;2022-07-23T09:30:28;22.31;57.79
72756;SHT30;60881;55.002;73.232;2022-07-23T09:35:44;22.19;57.71
72756;SHT30;60881;55.002;73.232;2022-07-23T09:38:23;22.28;57.74
72756;SHT30;60881;55.002;73.232;2022-07-23T09:41:08;22.28;58.45
72756;SHT30;60881;55.002;73.232;2022-07-23T09:43:46;22.26;59.52
72756;SHT30;60881;55.002;73.232;2022-07-23T09:46:21;22.35;60.03
72756;SHT30;60881;55.002;73.232;2022-07-23T09:48:51;22.42;60.18
72756;SHT30;60881;55.002;73.232;2022-07-23T09:51:24;22.45;57.28
72756;SHT30;60881;55.002;73.232;2022-07-23T09:53:54;22.52;55.66
72756;SHT30;60881;55.002;73.232;2022-07-23T09:56:21;22.52;57.19
72756;SHT30;60881;55.002;73.232;2022-07-23T09:58:54;22.53;55.56
72756;SHT30;60881;55.002;73.232;2022-07-23T10:01:33;22.65;55.88
72756;SHT30;60881;55.002;73.232;2022-07-23T10:04:01;22.72;53.45
72756;SHT30;60881;55.002;73.232;2022-07-23T10:06:55;22.80;53.07
72756;SHT30;60881;55.002;73.232;2022-07-23T10:09:52;22.96;51.36
72756;SHT30;60881;55.002;73.232;2022-07-23T10:12:37;23.07;51.89
72756;SHT30;60881;55.002;73.232;2022-07-23T10:15:22;23.20;50.89
72756;SHT30;60881;55.002;73.232;2022-07-23T10:17:59;23.26;50.49
72756;SHT30;60881;55.002;73.232;2022-07-23T10:20:25;23.33;49.33
72756;SHT30;60881;55.002;73.232;2022-07-23T10:23:24;23.28;47.39
72756;SHT30;60881;55.002;73.232;2022-07-23T10:34:41;23.40;47.27
72756;SHT30;60881;55.002;73.232;2022-07-23T10:37:44;23.46;45.07
72756;SHT30;60881;55.002;73.232;2022-07-23T10:40:17;23.51;44.80
72756;SHT30;60881;55.002;73.232;2022-07-23T10:42:46;23.57;43.88
72756;SHT30;60881;55.002;73.232;2022-07-23T10:48:22;23.56;44.73
72756;SHT30;60881;55.002;73.232;2022-07-23T10:51:09;23.51;44.72
72756;SHT30;60881;55.002;73.232;2022-07-23T10:59:26;23.39;44.49
72756;SHT30;60881;55.002;73.232;2022-07-23T11:02:23;23.39;44.78
72756;SHT30;60881;55.002;73.232;2022-07-23T11:04:51;23.27;44.92
72756;SHT30;60881;55.002;73.232;2022-07-23T11:07:28;23.10;46.31
72756;SHT30;60881;55.002;73.232;2022-07-23T11:09:59;22.68;48.38
72756;SHT30;60881;55.002;73.232;2022-07-23T11:15:14;22.05;55.02
72756;SHT30;60881;55.002;73.232;2022-07-23T11:20:22;21.33;63.32
72756;SHT30;60881;55.002;73.232;2022-07-23T11:22:50;21.26;61.24
72756;SHT30;60881;55.002;73.232;2022-07-23T11:28:18;21.26;58.71
72756;SHT30;60881;55.002;73.232;2022-07-23T11:30:47;21.26;58.51
72756;SHT30;60881;55.002;73.232;2022-07-23T11:35:49;21.14;54.91
72756;SHT30;60881;55.002;73.232;2022-07-23T11:38:21;21.15;54.05
72756;SHT30;60881;55.002;73.232;2022-07-23T11:40:50;21.13;55.46
72756;SHT30;60881;55.002;73.232;2022-07-23T11:43:18;21.13;54.47
72756;SHT30;60881;55.002;73.232;2022-07-23T11:45:50;21.11;52.81
72756;SHT30;60881;55.002;73.232;2022-07-23T11:48:20;21.13;54.96
72756;SHT30;60881;55.002;73.232;2022-07-23T11:50:49;21.13;54.97
72756;SHT30;60881;55.002;73.232;2022-07-23T11:53:23;21.11;54.72
72756;SHT30;60881;55.002;73.232;2022-07-23T11:55:50;21.17;54.39
72756;SHT30;60881;55.002;73.232;2022-07-23T11:58:17;21.20;55.97
72756;SHT30;60881;55.002;73.232;2022-07-23T12:00:45;21.23;52.59
72756;SHT30;60881;55.002;73.232;2022-07-23T12:03:11;21.26;51.73
72756;SHT30;60881;55.002;73.232;2022-07-23T12:05:38;21.27;49.94
72756;SHT30;60881;55.002;73.232;2022-07-23T12:08:09;21.30;49.76
72756;SHT30;60881;55.002;73.232;2022-07-23T12:10:39;21.33;51.37
72756;SHT30;60881;55.002;73.232;2022-07-23T12:13:13;21.37;50.58
72756;SHT30;60881;55.002;73.232;2022-07-23T12:15:43;21.38;48.65
72756;SHT30;60881;55.002;73.232;2022-07-23T12:18:12;21.38;50.24
72756;SHT30;60881;55.002;73.232;2022-07-23T12:20:47;21.43;46.89
72756;SHT30;60881;55.002;73.232;2022-07-23T12:23:22;21.46;49.73
72756;SHT30;60881;55.002;73.232;2022-07-23T12:26:09;21.51;50.09
72756;SHT30;60881;55.002;73.232;2022-07-23T12:28:38;21.55;48.72
72756;SHT30;60881;55.002;73.232;2022-07-23T12:31:05;21.57;43.60
72756;SHT30;60881;55.002;73.232;2022-07-23T12:33:37;21.64;43.41
72756;SHT30;60881;55.002;73.232;2022-07-23T12:36:07;21.67;44.22
72756;SHT30;60881;55.002;73.232;2022-07-23T12:38:48;21.70;44.77
72756;SHT30;60881;55.002;73.232;2022-07-23T12:41:14;21.74;44.83
72756;SHT30;60881;55.002;73.232;2022-07-23T12:43:45;21.80;46.34
72756;SHT30;60881;55.002;73.232;2022-07-23T12:46:18;21.78;45.80
72756;SHT30;60881;55.002;73.232;2022-07-23T12:48:53;21.80;46.94
72756;SHT30;60881;55.002;73.232;2022-07-23T12:51:43;21.90;46.59
72756;SHT30;60881;55.002;73.232;2022-07-23T12:54:10;21.98;46.54
72756;SHT30;60881;55.002;73.232;2022-07-23T12:56:38;22.15;45.96
72756;SHT30;60881;55.002;73.232;2022-07-23T12:59:08;22.36;46.78
72756;SHT30;60881;55.002;73.232;2022-07-23T13:01:37;22.60;46.68
72756;SHT30;60881;55.002;73.232;2022-07-23T13:06:44;22.90;43.18
72756;SHT30;60881;55.002;73.232;2022-07-23T13:09:18;22.98;43.79
72756;SHT30;60881;55.002;73.232;2022-07-23T13:11:46;23.00;45.05
72756;SHT30;60881;55.002;73.232;2022-07-23T13:14:14;23.06;44.94
72756;SHT30;60881;55.002;73.232;2022-07-23T13:16:42;23.10;43.73
72756;SHT30;60881;55.002;73.232;2022-07-23T13:19:08;23.20;44.26
72756;SHT30;60881;55.002;73.232;2022-07-23T13:21:36;23.22;44.37
72756;SHT30;60881;55.002;73.232;2022-07-23T13:24:03;23.22;43.81
72756;SHT30;60881;55.002;73.232;2022-07-23T13:26:30;23.26;45.22
72756;SHT30;60881;55.002;73.232;2022-07-23T13:28:56;23.06;45.53
72756;SHT30;60881;55.002;73.232;2022-07-23T13:40:03;22.52;46.15
72756;SHT30;60881;55.002;73.232;2022-07-23T13:42:30;22.49;46.68
72756;SHT30;60881;55.002;73.232;2022-07-23T13:44:57;22.44;47.45
72756;SHT30;60881;55.002;73.232;2022-07-23T13:47:24;22.34;46.20
72756;SHT30;60881;55.002;73.232;2022-07-23T13:58:55;22.59;41.43
72756;SHT30;60881;55.002;73.232;2022-07-23T14:01:25;22.60;41.70
72756;SHT30;60881;55.002;73.232;2022-07-23T14:08:13;22.60;41.54
72756;SHT30;60881;55.002;73.232;2022-07-23T14:10:40;22.56;40.81
72756;SHT30;60881;55.002;73.232;2022-07-23T14:13:06;22.56;41.09
72756;SHT30;60881;55.002;73.232;2022-07-23T14:15:34;22.51;41.22
72756;SHT30;60881;55.002;73.232;2022-07-23T14:18:00;22.51;40.39
72756;SHT30;60881;55.002;73.232;2022-07-23T14:20:26;22.46;41.66
72756;SHT30;60881;55.002;73.232;2022-07-23T14:22:53;22.36;41.31
72756;SHT30;60881;55.002;73.232;2022-07-23T14:25:21;22.41;40.85
72756;SHT30;60881;55.002;73.232;2022-07-23T14:27:48;22.41;40.41
72756;SHT30;60881;55.002;73.232;2022-07-23T14:30:14;22.18;41.11
72756;SHT30;60881;55.002;73.232;2022-07-23T14:32:41;22.09;41.21
72756;SHT30;60881;55.002;73.232;2022-07-23T14:35:08;22.06;41.49
72756;SHT30;60881;55.002;73.232;2022-07-23T14:38:00;21.88;40.79
72756;SHT30;60881;55.002;73.232;2022-07-23T14:40:26;21.74;41.51
72756;SHT30;60881;55.002;73.232;2022-07-23T14:42:52;21.62;41.17
72756;SHT30;60881;55.002;73.232;2022-07-23T14:45:19;21.58;41.05
72756;SHT30;60881;55.002;73.232;2022-07-23T14:47:46;21.53;41.00
72756;SHT30;60881;55.002;73.232;2022-07-23T14:50:14;21.43;41.24
72756;SHT30;60881;55.002;73.232;2022-07-23T14:52:41;21.37;41.41
72756;SHT30;60881;55.002;73.232;2022-07-23T14:55:07;21.28;41.33
72756;SHT30;60881;55.002;73.232;2022-07-23T14:57:35;21.22;42.06
72756;SHT30;60881;55.002;73.232;2022-07-23T15:00:04;21.13;42.40
72756;SHT30;60881;55.002;73.232;2022-07-23T15:02:31;21.02;43.12
72756;SHT30;60881;55.002;73.232;2022-07-23T15:04:58;20.91;44.77
72756;SHT30;60881;55.002;73.232;2022-07-23T15:07:27;20.86;46.13
72756;SHT30;60881;55.002;73.232;2022-07-23T15:09:55;20.80;48.06
72756;SHT30;60881;55.002;73.232;2022-07-23T15:12:21;20.70;48.64
72756;SHT30;60881;55.002;73.232;2022-07-23T15:14:53;20.56;49.95
72756;SHT30;60881;55.002;73.232;2022-07-23T15:17:20;20.47;50.99
72756;SHT30;60881;55.002;73.232;2022-07-23T15:19:47;20.35;52.39
72756;SHT30;60881;55.002;73.232;2022-07-23T15:22:13;20.23;52.94
72756;SHT30;60881;55.002;73.232;2022-07-23T15:24:39;20.13;54.27
72756;SHT30;60881;55.002;73.232;2022-07-23T15:27:07;19.93;54.44
72756;SHT30;60881;55.002;73.232;2022-07-23T15:29:34;19.93;55.09
72756;SHT30;60881;55.002;73.232;2022-07-23T15:32:02;19.91;55.41
72756;SHT30;60881;55.002;73.232;2022-07-23T15:34:29;19.89;55.97
72756;SHT30;60881;55.002;73.232;2022-07-23T15:37:00;19.88;55.42
72756;SHT30;60881;55.002;73.232;2022-07-23T15:39:27;19.91;55.15
72756;SHT30;60881;55.002;73.232;2022-07-23T15:41:56;19.98;54.36
72756;SHT30;60881;55.002;73.232;2022-07-23T15:44:23;19.96;54.94
72756;SHT30;60881;55.002;73.232;2022-07-23T15:46:50;19.88;56.81
72756;SHT30;60881;55.002;73.232;2022-07-23T15:49:17;19.82;56.18
72756;SHT30;60881;55.002;73.232;2022-07-23T15:51:43;19.79;55.60
72756;SHT30;60881;55.002;73.232;2022-07-23T15:54:11;19.86;55.17
72756;SHT30;60881;55.002;73.232;2022-07-23T15:56:42;19.83;56.16
72756;SHT30;60881;55.002;73.232;2022-07-23T15:59:09;19.82;55.51
72756;SHT30;60881;55.002;73.232;2022-07-23T16:01:35;19.83;56.30
72756;SHT30;60881;55.002;73.232;2022-07-23T16:04:03;19.78;56.64
72756;SHT30;60881;55.002;73.232;2022-07-23T16:06:32;19.77;57.35
72756;SHT30;60881;55.002;73.232;2022-07-23T16:08:59;19.69;58.32
72756;SHT30;60881;55.002;73.232;2022-07-23T16:11:26;19.62;59.70
72756;SHT30;60881;55.002;73.232;2022-07-23T16:13:58;19.54;57.22
72756;SHT30;60881;55.002;73.232;2022-07-23T16:16:25;19.30;57.61
72756;SHT30;60881;55.002;73.232;2022-07-23T16:18:56;19.13;58.00
72756;SHT30;60881;55.002;73.232;2022-07-23T16:21:23;19.06;57.26
72756;SHT30;60881;55.002;73.232;2022-07-23T16:23:50;18.93;57.35
72756;SHT30;60881;55.002;73.232;2022-07-23T16:26:18;18.86;57.40
72756;SHT30;60881;55.002;73.232;2022-07-23T16:28:46;18.79;57.56
72756;SHT30;60881;55.002;73.232;2022-07-23T16:31:14;18.74;57.13
72756;SHT30;60881;55.002;73.232;2022-07-23T16:33:41;18.76;57.02
72756;SHT30;60881;55.002;73.232;2022-07-23T16:36:19;18.74;57.27
72756;SHT30;60881;55.002;73.232;2022-07-23T16:38:50;18.73;56.94
72756;SHT30;60881;55.002;73.232;2022-07-23T16:41:29;18.67;57.62
72756;SHT30;60881;55.002;73.232;2022-07-23T16:44:03;18.68;57.87
72756;SHT30;60881;55.002;73.232;2022-07-23T16:46:31;18.59;58.77
72756;SHT30;60881;55.002;73.232;2022-07-23T16:48:57;18.47;58.59
72756;SHT30;60881;55.002;73.232;2022-07-23T16:51:35;18.37;58.68
72756;SHT30;60881;55.002;73.232;2022-07-23T16:54:12;18.32;58.78